createdAt,value
2019-01-24T00:02:07.681Z,98154.05
2019-01-24T00:04:38.076Z,98153.64
2019-01-24T00:07:11.020Z,98154.94
2019-01-24T00:09:41.415Z,98162.61
2019-01-24T00:12:13.119Z,98158.81
2019-01-24T00:14:46.103Z,98165.89
2019-01-24T00:17:19.097Z,98163.38
2019-01-24T00:19:51.067Z,98165.08
2019-01-24T00:22:21.937Z,98165.23
2019-01-24T00:24:54.449Z,98161.52
2019-01-24T00:27:26.201Z,98156.46
2019-01-24T00:29:57.163Z,98162.17
2019-01-24T00:32:28.346Z,98167.98
2019-01-24T00:34:59.177Z,98168.10
2019-01-24T00:37:30.269Z,98166.93
2019-01-24T00:40:01.285Z,98173.48
2019-01-24T00:42:33.305Z,98176.88
2019-01-24T00:45:06.635Z,98182.17
2019-01-24T00:47:39.394Z,98180.59
2019-01-24T00:50:10.526Z,98186.86
2019-01-24T00:52:41.342Z,98191.47
2019-01-24T00:55:13.591Z,98199.42
2019-01-24T00:57:46.401Z,98202.81
2019-01-24T01:00:21.616Z,98198.33
2019-01-24T01:02:54.502Z,98216.23
2019-01-24T01:05:25.381Z,98213.28
2019-01-24T01:07:56.270Z,98217.00
2019-01-24T01:10:27.806Z,98215.47
2019-01-24T01:13:00.401Z,98222.45
2019-01-24T01:15:32.402Z,98228.28
2019-01-24T01:18:04.568Z,98229.94
2019-01-24T01:20:35.407Z,98231.50
2019-01-24T01:23:07.309Z,98232.31
2019-01-24T01:25:38.462Z,98231.10
2019-01-24T01:28:10.432Z,98235.23
2019-01-24T01:30:43.514Z,98228.97
2019-01-24T01:33:16.468Z,98228.23
2019-01-24T01:35:48.335Z,98225.65
2019-01-24T01:38:19.178Z,98226.27
2019-01-24T01:40:49.708Z,98228.00
2019-01-24T01:43:20.962Z,98229.17
2019-01-24T01:45:51.950Z,98224.03
2019-01-24T01:48:23.017Z,98230.74
2019-01-24T01:50:53.691Z,98235.39
2019-01-24T01:53:24.772Z,98233.73
2019-01-24T01:55:55.614Z,98234.06
2019-01-24T01:58:26.534Z,98229.12
2019-01-24T02:00:57.486Z,98235.39
2019-01-24T02:03:28.614Z,98230.22
2019-01-24T02:06:00.564Z,98225.53
2019-01-24T02:08:30.938Z,98229.41
2019-01-24T02:11:01.584Z,98232.80
2019-01-24T02:13:31.975Z,98226.02
2019-01-24T02:16:02.618Z,98233.25
2019-01-24T02:18:33.561Z,98238.22
2019-01-24T02:21:05.393Z,98238.98
2019-01-24T02:23:36.267Z,98236.88
2019-01-24T02:26:06.795Z,98235.23
2019-01-24T02:28:38.118Z,98236.56
2019-01-24T02:31:09.085Z,98232.77
2019-01-24T02:33:39.752Z,98240.04
2019-01-24T02:36:10.785Z,98234.95
2019-01-24T02:38:41.683Z,98234.55
2019-01-24T02:41:12.945Z,98238.30
2019-01-24T02:43:43.654Z,98238.22
2019-01-24T02:46:14.754Z,98245.69
2019-01-24T02:48:45.759Z,98246.94
2019-01-24T02:51:16.542Z,98248.23
2019-01-24T02:53:47.507Z,98239.11
2019-01-24T02:56:18.401Z,98243.77
2019-01-24T02:58:48.899Z,98247.16
2019-01-24T03:01:19.846Z,98239.11
2019-01-24T03:03:51.150Z,98245.02
2019-01-24T03:06:21.937Z,98254.50
2019-01-24T03:08:52.908Z,98254.95
2019-01-24T03:11:23.737Z,98259.03
2019-01-24T03:13:54.755Z,98255.58
2019-01-24T03:16:25.705Z,98258.71
2019-01-24T03:18:56.711Z,98260.23
2019-01-24T03:21:27.689Z,98258.13
2019-01-24T03:23:58.597Z,98262.73
2019-01-24T03:26:28.975Z,98261.58
2019-01-24T03:29:00.667Z,98262.42
2019-01-24T03:31:31.047Z,98262.38
2019-01-24T03:34:02.015Z,98270.25
2019-01-24T03:36:33.252Z,98268.24
2019-01-24T03:39:06.369Z,98272.89
2019-01-24T03:41:38.025Z,98273.30
2019-01-24T03:44:10.033Z,98279.28
2019-01-24T03:46:43.076Z,98281.21
2019-01-24T03:49:14.432Z,98282.87
2019-01-24T03:51:47.373Z,98281.30
2019-01-24T03:54:19.421Z,98279.33
2019-01-24T03:56:50.210Z,98292.58
2019-01-24T03:59:23.029Z,98281.79
2019-01-24T04:01:54.059Z,98283.27
2019-01-24T04:04:26.916Z,98286.17
2019-01-24T04:06:59.361Z,98290.83
2019-01-24T04:09:30.070Z,98293.87
2019-01-24T04:12:01.089Z,98293.92
2019-01-24T04:14:32.180Z,98286.36
2019-01-24T04:17:03.383Z,98295.22
2019-01-24T04:19:35.854Z,98297.23
2019-01-24T04:22:07.456Z,98298.94
2019-01-24T04:24:39.229Z,98302.25
2019-01-24T04:27:11.094Z,98304.44
2019-01-24T04:29:44.345Z,98306.86
2019-01-24T04:32:15.264Z,98307.22
2019-01-24T04:34:48.185Z,98308.51
2019-01-24T04:37:20.190Z,98311.86
2019-01-24T04:39:52.196Z,98316.47
2019-01-24T04:42:22.609Z,98312.49
2019-01-24T04:44:53.245Z,98312.94
2019-01-24T04:47:24.392Z,98318.40
2019-01-24T04:49:55.324Z,98326.01
2019-01-24T04:52:26.263Z,98322.34
2019-01-24T04:54:59.036Z,98321.44
2019-01-24T04:57:33.687Z,98339.30
2019-01-24T05:00:09.666Z,98334.11
2019-01-24T05:02:42.286Z,98345.83
2019-01-24T05:05:14.380Z,98351.16
2019-01-24T05:07:47.331Z,98354.25
2019-01-24T05:10:18.487Z,98359.58
2019-01-24T05:12:49.526Z,98364.89
2019-01-24T05:15:21.265Z,98366.05
2019-01-24T05:17:54.392Z,98369.41
2019-01-24T05:20:25.567Z,98380.27
2019-01-24T05:22:56.468Z,98370.56
2019-01-24T05:25:28.441Z,98374.01
2019-01-24T05:28:01.398Z,98377.72
2019-01-24T05:30:33.100Z,98380.23
2019-01-24T05:33:03.563Z,98378.18
2019-01-24T05:35:35.106Z,98379.44
2019-01-24T05:38:05.856Z,98382.78
2019-01-24T05:40:36.568Z,98394.97
2019-01-24T05:43:07.624Z,98397.67
2019-01-24T05:45:40.350Z,98402.32
2019-01-24T05:48:12.597Z,98394.37
2019-01-24T05:50:43.700Z,98400.37
2019-01-24T05:53:14.593Z,98399.02
2019-01-24T05:55:46.928Z,98403.13
2019-01-24T05:58:19.601Z,98409.84
2019-01-24T06:00:50.769Z,98412.84
2019-01-24T06:03:21.627Z,98417.52
2019-01-24T06:05:52.714Z,98421.17
2019-01-24T06:08:23.618Z,98425.28
2019-01-24T06:10:54.878Z,98426.53
2019-01-24T06:13:25.728Z,98419.02
2019-01-24T06:15:56.653Z,98420.92
2019-01-24T06:18:29.805Z,98420.79
2019-01-24T06:21:00.700Z,98439.41
2019-01-24T06:23:33.451Z,98435.46
2019-01-24T06:26:05.885Z,98439.09
2019-01-24T06:28:37.854Z,98449.16
2019-01-24T06:31:08.244Z,98445.65
2019-01-24T06:33:40.774Z,98451.34
2019-01-24T06:36:13.230Z,98450.94
2019-01-24T06:38:44.949Z,98452.39
2019-01-24T06:41:15.292Z,98446.47
2019-01-24T06:43:45.846Z,98450.28
2019-01-24T06:46:16.963Z,98455.74
2019-01-24T06:48:47.920Z,98454.45
2019-01-24T06:51:19.047Z,98458.19
2019-01-24T06:53:49.994Z,98474.59
2019-01-24T06:56:22.688Z,98475.72
2019-01-24T06:58:54.820Z,98481.50
2019-01-24T07:01:26.999Z,98487.02
2019-01-24T07:03:59.982Z,98501.30
2019-01-24T07:06:31.151Z,98512.19
2019-01-24T07:09:02.062Z,98513.31
2019-01-24T07:11:34.540Z,98514.55
2019-01-24T07:14:06.895Z,98509.61
2019-01-24T07:16:39.897Z,98528.80
2019-01-24T07:19:11.012Z,98521.29
2019-01-24T07:21:41.984Z,98522.27
2019-01-24T07:24:13.913Z,98521.41
2019-01-24T07:26:44.336Z,98520.25
2019-01-24T07:29:17.022Z,98527.76
2019-01-24T07:31:48.926Z,98521.50
2019-01-24T07:34:19.799Z,98527.22
2019-01-24T07:36:50.722Z,98527.84
2019-01-24T07:39:21.740Z,98531.93
2019-01-24T07:41:52.597Z,98527.50
2019-01-24T07:44:23.062Z,98520.24
2019-01-24T07:46:54.489Z,98528.98
2019-01-24T07:49:25.157Z,98527.32
2019-01-24T07:51:56.165Z,98535.13
2019-01-24T07:54:27.033Z,98531.70
2019-01-24T07:56:58.373Z,98537.00
2019-01-24T07:59:29.146Z,98538.27
2019-01-24T08:02:00.131Z,98540.59
2019-01-24T08:04:31.066Z,98539.80
2019-01-24T08:07:02.045Z,98542.02
2019-01-24T08:09:32.777Z,98547.13
2019-01-24T08:12:03.203Z,98554.16
2019-01-24T08:14:34.247Z,98549.55
2019-01-24T08:17:05.288Z,98550.95
2019-01-24T08:19:36.347Z,98548.68
2019-01-24T08:22:07.222Z,98557.62
2019-01-24T08:24:38.342Z,98548.84
2019-01-24T08:27:08.767Z,98547.59
2019-01-24T08:29:40.297Z,98562.47
2019-01-24T08:32:11.184Z,98565.31
2019-01-24T08:34:42.162Z,98568.58
2019-01-24T08:37:13.140Z,98565.16
2019-01-24T08:39:44.012Z,98570.34
2019-01-24T08:42:14.742Z,98572.32
2019-01-24T08:44:45.546Z,98588.73
2019-01-24T08:47:17.309Z,98575.80
2019-01-24T08:49:47.899Z,98584.63
2019-01-24T08:52:20.309Z,98578.42
2019-01-24T08:54:52.549Z,98580.52
2019-01-24T08:57:23.526Z,98573.52
2019-01-24T08:59:54.422Z,98581.51
2019-01-24T09:02:25.567Z,98581.68
2019-01-24T09:04:58.470Z,98588.62
2019-01-24T09:07:29.447Z,98581.05
2019-01-24T09:10:00.729Z,98601.33
2019-01-24T09:12:31.468Z,98590.33
2019-01-24T09:15:02.554Z,98588.45
2019-01-24T09:17:35.157Z,98589.08
2019-01-24T09:20:09.567Z,98590.22
2019-01-24T09:22:41.703Z,98587.25
2019-01-24T09:25:14.560Z,98587.44
2019-01-24T09:27:46.582Z,98590.78
2019-01-24T09:30:19.982Z,98588.50
2019-01-24T09:32:51.523Z,98594.20
2019-01-24T09:35:22.631Z,98593.42
2019-01-24T09:37:53.511Z,98601.36
2019-01-24T09:40:26.659Z,98610.09
2019-01-24T09:42:57.693Z,98597.11
2019-01-24T09:45:29.678Z,98608.63
2019-01-24T09:48:01.671Z,98603.44
2019-01-24T09:50:33.766Z,98616.84
2019-01-24T09:53:04.730Z,98618.55
2019-01-24T09:55:36.038Z,98615.52
2019-01-24T09:58:06.904Z,98624.64
2019-01-24T10:00:38.533Z,98615.97
2019-01-24T10:03:08.983Z,98622.05
2019-01-24T10:05:39.768Z,98626.55
2019-01-24T10:08:11.711Z,98617.79
2019-01-24T10:10:44.706Z,98613.97
2019-01-24T10:13:17.703Z,98605.20
2019-01-24T10:15:49.417Z,98608.47
2019-01-24T10:18:21.750Z,98617.44
2019-01-24T10:20:53.838Z,98613.28
2019-01-24T10:23:24.752Z,98627.30
2019-01-24T10:25:55.937Z,98615.39
2019-01-24T10:28:27.832Z,98611.94
2019-01-24T10:31:00.818Z,98610.97
2019-01-24T10:33:31.785Z,98603.30
2019-01-24T10:36:02.916Z,98608.53
2019-01-24T10:38:33.914Z,98610.02
2019-01-24T10:41:05.860Z,98603.35
2019-01-24T10:43:37.030Z,98616.69
2019-01-24T10:46:07.999Z,98611.95
2019-01-24T10:48:41.026Z,98606.21
2019-01-24T10:51:13.005Z,98618.74
2019-01-24T10:53:45.935Z,98606.32
2019-01-24T10:56:17.999Z,98601.50
2019-01-24T10:58:50.030Z,98603.44
2019-01-24T11:01:21.786Z,98608.58
2019-01-24T11:03:52.698Z,98603.91
2019-01-24T11:06:23.124Z,98613.19
2019-01-24T11:08:54.490Z,98608.30
2019-01-24T11:11:25.101Z,98601.38
2019-01-24T11:13:57.631Z,98624.54
2019-01-24T11:16:29.935Z,98608.86
2019-01-24T11:19:02.004Z,98608.00
2019-01-24T11:21:35.070Z,98608.47
2019-01-24T11:24:06.238Z,98610.27
2019-01-24T11:26:37.188Z,98606.41
2019-01-24T11:29:08.072Z,98604.58
2019-01-24T11:31:39.252Z,98596.43
2019-01-24T11:34:11.029Z,98610.86
2019-01-24T11:36:45.725Z,98609.44
2019-01-24T11:39:17.071Z,98612.39
2019-01-24T11:41:48.231Z,98606.06
2019-01-24T11:44:21.183Z,98605.78
2019-01-24T11:46:51.609Z,98593.50
2019-01-24T11:49:22.442Z,98592.47
2019-01-24T11:51:53.238Z,98589.22
2019-01-24T11:54:24.221Z,98582.78
2019-01-24T11:56:55.217Z,98582.52
2019-01-24T11:59:26.114Z,98588.80
2019-01-24T12:01:57.219Z,98605.97
2019-01-24T12:04:28.188Z,98590.59
2019-01-24T12:07:04.284Z,98590.80
2019-01-24T12:09:36.309Z,98589.09
2019-01-24T12:12:08.156Z,98578.87
2019-01-24T12:14:40.365Z,98579.97
2019-01-24T12:17:11.333Z,98583.22
2019-01-24T12:19:42.238Z,98586.85
2019-01-24T12:22:14.852Z,98593.12
2019-01-24T12:24:47.375Z,98578.40
2019-01-24T12:27:18.361Z,98579.89
2019-01-24T12:29:49.358Z,98582.53
2019-01-24T12:32:20.334Z,98582.70
2019-01-24T12:34:51.368Z,98581.39
2019-01-24T12:37:22.375Z,98571.17
2019-01-24T12:39:53.474Z,98587.23
2019-01-24T12:42:24.663Z,98580.97
2019-01-24T12:44:55.333Z,98594.88
2019-01-24T12:47:26.373Z,98575.86
2019-01-24T12:49:57.514Z,98579.06
2019-01-24T12:52:28.555Z,98584.84
2019-01-24T12:54:59.563Z,98576.41
2019-01-24T12:57:30.602Z,98579.70
2019-01-24T13:00:03.807Z,98587.23
2019-01-24T13:02:34.520Z,98588.60
2019-01-24T13:05:08.652Z,98592.06
2019-01-24T13:07:39.014Z,98590.42
2019-01-24T13:10:13.104Z,98600.70
2019-01-24T13:12:44.486Z,98590.10
2019-01-24T13:15:17.039Z,98593.16
2019-01-24T13:17:47.619Z,98589.91
2019-01-24T13:20:18.756Z,98587.10
2019-01-24T13:22:49.572Z,98586.19
2019-01-24T13:25:29.157Z,98587.91
2019-01-24T13:28:00.665Z,98585.75
2019-01-24T13:30:33.075Z,98581.28
2019-01-24T13:33:06.722Z,98584.28
2019-01-24T13:35:39.804Z,98584.53
2019-01-24T13:38:11.700Z,98591.41
2019-01-24T13:40:43.614Z,98596.17
2019-01-24T13:43:15.623Z,98593.66
2019-01-24T13:45:48.611Z,98596.83
2019-01-24T13:48:19.755Z,98601.11
2019-01-24T13:50:50.664Z,98597.70
2019-01-24T13:53:21.867Z,98606.11
2019-01-24T13:55:52.665Z,98613.47
2019-01-24T13:58:23.851Z,98615.36
2019-01-24T14:00:54.766Z,98612.09
2019-01-24T14:03:42.073Z,98626.81
2019-01-24T14:06:08.219Z,98618.08
2019-01-24T14:08:39.796Z,98621.73
2019-01-24T14:11:17.873Z,98617.74
2019-01-24T14:13:45.841Z,98620.19
2019-01-24T14:16:17.864Z,98618.95
2019-01-24T14:18:50.843Z,98606.73
2019-01-24T14:21:23.768Z,98622.31
2019-01-24T14:23:54.907Z,98623.03
2019-01-24T14:26:25.885Z,98624.69
2019-01-24T14:28:56.842Z,98626.75
2019-01-24T14:31:27.760Z,98622.88
2019-01-24T14:33:58.673Z,98643.89
2019-01-24T14:36:29.576Z,98630.44
2019-01-24T14:39:00.748Z,98632.60
2019-01-24T14:41:31.597Z,98648.45
2019-01-24T14:44:01.987Z,98624.59
2019-01-24T14:46:33.604Z,98621.66
2019-01-24T14:49:04.648Z,98612.48
2019-01-24T14:51:35.058Z,98631.41
2019-01-24T14:54:06.046Z,98616.25
2019-01-24T14:56:36.912Z,98618.55
2019-01-24T14:59:07.967Z,98617.22
2019-01-24T15:01:39.087Z,98627.06
2019-01-24T15:04:10.261Z,98627.15
2019-01-24T15:06:41.128Z,98634.67
2019-01-24T15:09:12.030Z,98634.66
2019-01-24T15:11:42.993Z,98629.66
2019-01-24T15:14:13.993Z,98627.25
2019-01-24T15:16:45.031Z,98633.92
2019-01-24T15:19:16.126Z,98635.17
2019-01-24T15:21:47.040Z,98640.58
2019-01-24T15:24:18.054Z,98636.10
2019-01-24T15:26:48.931Z,98638.66
2019-01-24T15:29:21.586Z,98643.63
2019-01-24T15:31:54.193Z,98653.36
2019-01-24T15:34:25.112Z,98658.19
2019-01-24T15:36:56.327Z,98653.59
2019-01-24T15:39:27.322Z,98674.04
2019-01-24T15:41:58.118Z,98663.55
2019-01-24T15:44:29.241Z,98663.56
2019-01-24T15:47:00.292Z,98667.78
2019-01-24T15:49:31.151Z,98667.38
2019-01-24T15:52:01.573Z,98678.39
2019-01-24T15:54:32.226Z,98681.11
2019-01-24T15:57:03.246Z,98684.00
2019-01-24T15:59:34.187Z,98680.30
2019-01-24T16:02:05.446Z,98674.78
2019-01-24T16:04:38.029Z,98669.88
2019-01-24T16:07:08.546Z,98690.78
2019-01-24T16:09:41.403Z,98678.94
2019-01-24T16:12:12.286Z,98680.86
2019-01-24T16:14:42.668Z,98683.47
2019-01-24T16:17:15.347Z,98695.11
2019-01-24T16:19:48.940Z,98697.26
2019-01-24T16:22:21.365Z,98698.52
2019-01-24T16:24:53.441Z,98691.33
2019-01-24T16:27:26.123Z,98688.03
2019-01-24T16:29:57.072Z,98695.04
2019-01-24T16:32:28.095Z,98691.33
2019-01-24T16:34:58.951Z,98688.71
2019-01-24T16:37:29.420Z,98694.91
2019-01-24T16:40:00.492Z,98701.97
2019-01-24T16:42:31.074Z,98702.50
2019-01-24T16:45:02.479Z,98705.98
2019-01-24T16:47:33.494Z,98693.66
2019-01-24T16:50:07.046Z,98703.88
2019-01-24T16:52:38.430Z,98698.80
2019-01-24T16:55:11.094Z,98724.89
2019-01-24T16:57:43.549Z,98713.69
2019-01-24T17:01:13.444Z,98700.17
2019-01-24T17:03:47.170Z,98714.21
2019-01-24T17:06:19.639Z,98701.95
2019-01-24T17:08:51.184Z,98701.76
2019-01-24T17:11:23.674Z,98707.36
2019-01-24T17:13:54.591Z,98708.16
2019-01-24T17:16:25.709Z,98713.97
2019-01-24T17:18:56.564Z,98715.53
2019-01-24T17:21:27.754Z,98715.47
2019-01-24T17:23:59.601Z,98710.41
2019-01-24T17:26:31.522Z,98712.05
2019-01-24T17:29:03.907Z,98715.75
2019-01-24T17:31:34.639Z,98719.43
2019-01-24T17:34:05.672Z,98712.70
2019-01-24T17:36:37.670Z,98715.99
2019-01-24T17:39:10.884Z,98725.70
2019-01-24T17:41:41.727Z,98718.24
2019-01-24T17:44:12.707Z,98726.56
2019-01-24T17:46:45.961Z,98722.92
2019-01-24T17:49:16.808Z,98729.72
2019-01-24T17:51:47.675Z,98732.58
2019-01-24T17:54:18.844Z,98725.42
2019-01-24T17:56:49.819Z,98731.03
2019-01-24T17:59:20.759Z,98735.98
2019-01-24T18:01:51.783Z,98735.98
2019-01-24T18:04:23.546Z,98742.19
2019-01-24T18:06:54.820Z,98739.61
2019-01-24T18:09:25.996Z,98739.93
2019-01-24T18:11:58.964Z,98758.94
2019-01-24T18:14:29.977Z,98757.34
2019-01-24T18:17:02.949Z,98748.70
2019-01-24T18:19:33.949Z,98752.55
2019-01-24T18:22:05.080Z,98751.31
2019-01-24T18:24:36.176Z,98748.98
2019-01-24T18:27:07.011Z,98759.84
2019-01-24T18:29:37.842Z,98763.95
2019-01-24T18:32:08.551Z,98771.45
2019-01-24T18:34:40.046Z,98764.73
2019-01-24T18:37:11.988Z,98770.53
2019-01-24T18:39:44.988Z,98770.22
2019-01-24T18:42:15.556Z,98770.20
2019-01-24T18:44:46.988Z,98782.30
2019-01-24T18:47:17.988Z,98771.98
2019-01-24T18:49:48.994Z,98772.97
2019-01-24T18:52:20.062Z,98779.70
2019-01-24T18:54:51.047Z,98773.02
2019-01-24T18:57:21.830Z,98776.66
2019-01-24T18:59:52.862Z,98789.94
2019-01-24T19:02:23.681Z,98772.36
2019-01-24T19:04:54.543Z,98771.50
2019-01-24T19:07:25.076Z,98775.19
2019-01-24T19:09:56.104Z,98769.45
2019-01-24T19:12:27.195Z,98785.36
2019-01-24T19:14:58.287Z,98800.84
2019-01-24T19:17:29.239Z,98783.21
2019-01-24T19:20:00.259Z,98783.96
2019-01-24T19:22:31.222Z,98786.33
2019-01-24T19:25:02.203Z,98789.80
2019-01-24T19:27:33.174Z,98793.70
2019-01-24T19:30:05.768Z,98787.45
2019-01-24T19:32:38.288Z,98781.20
2019-01-24T19:35:08.865Z,98785.34
2019-01-24T19:37:40.415Z,98783.70
2019-01-24T19:40:14.688Z,98785.14
2019-01-24T19:42:45.530Z,98787.74
2019-01-24T19:45:21.937Z,98792.42
2019-01-24T19:47:53.706Z,98791.81
2019-01-24T19:50:25.642Z,98791.52
2019-01-24T19:52:58.880Z,98798.69
2019-01-24T19:55:32.428Z,98796.11
2019-01-24T19:58:04.299Z,98795.81
2019-01-24T20:00:37.300Z,98798.70
2019-01-24T20:03:08.696Z,98800.34
2019-01-24T20:05:41.456Z,98799.42
2019-01-24T20:08:12.546Z,98801.71
2019-01-24T20:10:45.387Z,98806.72
2019-01-24T20:13:18.311Z,98799.97
2019-01-24T20:15:51.499Z,98805.54
2019-01-24T20:18:22.574Z,98802.61
2019-01-24T20:20:53.336Z,98808.59
2019-01-24T20:23:24.448Z,98811.59
2019-01-24T20:25:55.287Z,98811.80
2019-01-24T20:28:26.337Z,98810.49
2019-01-24T20:30:57.451Z,98805.41
2019-01-24T20:33:28.280Z,98808.39
2019-01-24T20:35:59.877Z,98800.55
2019-01-24T20:38:30.273Z,98804.36
2019-01-24T20:41:01.288Z,98801.33
2019-01-24T20:43:35.492Z,98811.09
2019-01-24T20:46:05.607Z,98816.81
2019-01-24T20:48:36.662Z,98817.36
2019-01-24T20:51:07.610Z,98826.13
2019-01-24T20:53:38.997Z,98838.95
2019-01-24T20:56:11.038Z,98832.69
2019-01-24T20:58:43.634Z,98821.98
2019-01-24T21:01:15.653Z,98819.81
2019-01-24T21:03:55.128Z,98827.70
2019-01-24T21:06:22.646Z,98827.37
2019-01-24T21:08:53.645Z,98825.27
2019-01-24T21:11:25.584Z,98831.70
2019-01-24T21:13:56.008Z,98827.14
2019-01-24T21:16:26.594Z,98825.03
2019-01-24T21:18:57.684Z,98830.83
2019-01-24T21:21:28.588Z,98829.80
2019-01-24T21:23:59.760Z,98823.48
2019-01-24T21:26:30.695Z,98818.19
2019-01-24T21:29:01.149Z,98823.91
2019-01-24T21:31:31.694Z,98828.09
2019-01-24T21:34:03.933Z,98827.23
2019-01-24T21:36:34.843Z,98832.48
2019-01-24T21:39:08.664Z,98831.06
2019-01-24T21:41:39.550Z,98831.06
2019-01-24T21:44:10.677Z,98841.14
2019-01-24T21:46:41.551Z,98843.20
2019-01-24T21:49:12.541Z,98838.25
2019-01-24T21:51:43.429Z,98852.56
2019-01-24T21:54:14.604Z,98855.92
2019-01-24T21:56:46.975Z,98852.49
2019-01-24T21:59:19.011Z,98848.28
2019-01-24T22:01:49.795Z,98855.78
2019-01-24T22:04:21.013Z,98851.04
2019-01-24T22:06:51.873Z,98851.04
2019-01-24T22:09:29.024Z,98864.95
2019-01-24T22:11:57.004Z,98851.11
2019-01-24T22:14:29.355Z,98865.44
2019-01-24T22:17:01.875Z,98870.43
2019-01-24T22:19:33.152Z,98857.43
2019-01-24T22:22:04.021Z,98865.49
2019-01-24T22:24:34.923Z,98861.34
2019-01-24T22:27:06.082Z,98868.78
2019-01-24T22:29:36.872Z,98864.19
2019-01-24T22:32:08.323Z,98870.43
2019-01-24T22:34:40.097Z,98863.01
2019-01-24T22:37:13.029Z,98880.13
2019-01-24T22:39:44.105Z,98877.55
2019-01-24T22:42:15.055Z,98869.66
2019-01-24T22:44:46.046Z,98874.59
2019-01-24T22:47:18.855Z,98879.53
2019-01-24T22:49:50.783Z,98867.29
2019-01-24T22:52:21.249Z,98874.97
2019-01-24T22:54:52.081Z,98876.30
2019-01-24T22:57:23.441Z,98880.47
2019-01-24T22:59:54.680Z,98875.34
2019-01-24T23:02:28.041Z,98873.46
2019-01-24T23:04:59.007Z,98880.41
2019-01-24T23:07:30.072Z,98878.75
2019-01-24T23:10:01.210Z,98878.80
2019-01-24T23:12:32.171Z,98869.20
2019-01-24T23:15:03.089Z,98869.01
2019-01-24T23:17:34.249Z,98876.17
2019-01-24T23:20:06.379Z,98874.19
2019-01-24T23:22:39.453Z,98880.45
2019-01-24T23:25:09.991Z,98880.00
2019-01-24T23:27:41.996Z,98880.47
2019-01-24T23:30:14.280Z,98880.93
2019-01-24T23:32:45.208Z,98880.47
2019-01-24T23:35:15.722Z,98879.75
2019-01-24T23:37:52.336Z,98870.89
2019-01-24T23:40:22.609Z,98877.02
2019-01-24T23:42:54.369Z,98889.07
2019-01-24T23:45:26.386Z,98865.56
2019-01-24T23:47:57.261Z,98871.85
2019-01-24T23:50:27.649Z,98871.05
2019-01-24T23:52:58.233Z,98870.38
2019-01-24T23:55:28.614Z,98877.22
2019-01-24T23:58:00.487Z,98875.39
